sensor_id;sensor_type;location;lat;lon;timestamp;pressure;altitude;pressure_sealevel;temperature;humidity
18527;BME280;9393;42.158;24.748;2022-07-25T00:02:36;99336.66;;;30.11;48.45
18527;BME280;9393;42.158;24.748;2022-07-25T00:05:40;99347.50;;;29.60;50.18
18527;BME280;9393;42.158;24.748;2022-07-25T00:08:43;99343.72;;;29.71;49.83
18527;BME280;9393;42.158;24.748;2022-07-25T00:11:48;99339.44;;;29.45;48.53
18527;BME280;9393;42.158;24.748;2022-07-25T00:14:51;99362.75;;;28.89;52.17
18527;BME280;9393;42.158;24.748;2022-07-25T00:17:55;99360.84;;;28.84;53.70
18527;BME280;9393;42.158;24.748;2022-07-25T00:21:00;99367.81;;;28.80;55.09
18527;BME280;9393;42.158;24.748;2022-07-25T00:24:03;99375.50;;;28.62;54.63
18527;BME280;9393;42.158;24.748;2022-07-25T00:27:09;99371.56;;;28.74;53.36
18527;BME280;9393;42.158;24.748;2022-07-25T00:30:13;99376.06;;;28.69;53.78
18527;BME280;9393;42.158;24.748;2022-07-25T00:33:16;99384.75;;;28.29;54.56
18527;BME280;9393;42.158;24.748;2022-07-25T00:36:20;99385.22;;;28.16;51.28
18527;BME280;9393;42.158;24.748;2022-07-25T00:39:23;99379.94;;;27.89;52.96
18527;BME280;9393;42.158;24.748;2022-07-25T00:42:29;99384.44;;;27.83;52.09
18527;BME280;9393;42.158;24.748;2022-07-25T00:45:32;99384.94;;;27.75;52.38
18527;BME280;9393;42.158;24.748;2022-07-25T00:48:36;99378.16;;;27.68;52.46
18527;BME280;9393;42.158;24.748;2022-07-25T00:51:39;99372.06;;;27.77;51.29
18527;BME280;9393;42.158;24.748;2022-07-25T00:54:43;99368.56;;;28.08;51.60
18527;BME280;9393;42.158;24.748;2022-07-25T00:57:50;99367.94;;;28.01;50.00
18527;BME280;9393;42.158;24.748;2022-07-25T01:00:53;99373.25;;;27.91;50.02
18527;BME280;9393;42.158;24.748;2022-07-25T01:03:56;99363.72;;;28.10;50.09
18527;BME280;9393;42.158;24.748;2022-07-25T01:07:01;99361.66;;;28.28;50.12
18527;BME280;9393;42.158;24.748;2022-07-25T01:10:05;99366.00;;;28.34;49.60
18527;BME280;9393;42.158;24.748;2022-07-25T01:13:11;99376.16;;;28.27;49.66
18527;BME280;9393;42.158;24.748;2022-07-25T01:16:17;99377.31;;;28.41;49.18
18527;BME280;9393;42.158;24.748;2022-07-25T01:19:25;99374.66;;;28.51;48.68
18527;BME280;9393;42.158;24.748;2022-07-25T01:22:30;99369.91;;;28.11;49.31
18527;BME280;9393;42.158;24.748;2022-07-25T01:25:33;99362.84;;;28.47;47.62
18527;BME280;9393;42.158;24.748;2022-07-25T01:28:37;99370.94;;;28.57;47.38
18527;BME280;9393;42.158;24.748;2022-07-25T01:31:40;99361.38;;;28.19;46.29
18527;BME280;9393;42.158;24.748;2022-07-25T01:34:44;99361.09;;;28.21;46.07
18527;BME280;9393;42.158;24.748;2022-07-25T01:37:51;99350.34;;;28.83;44.95
18527;BME280;9393;42.158;24.748;2022-07-25T01:40:54;99341.78;;;28.91;44.95
18527;BME280;9393;42.158;24.748;2022-07-25T01:43:57;99340.47;;;29.03;45.24
18527;BME280;9393;42.158;24.748;2022-07-25T01:47:01;99334.03;;;28.99;44.87
18527;BME280;9393;42.158;24.748;2022-07-25T01:50:05;99336.72;;;28.99;44.92
18527;BME280;9393;42.158;24.748;2022-07-25T01:53:10;99331.59;;;28.98;45.00
18527;BME280;9393;42.158;24.748;2022-07-25T01:56:13;99319.81;;;28.99;44.69
18527;BME280;9393;42.158;24.748;2022-07-25T01:59:17;99306.81;;;28.66;46.09
18527;BME280;9393;42.158;24.748;2022-07-25T02:02:20;99308.66;;;28.55;46.38
18527;BME280;9393;42.158;24.748;2022-07-25T02:05:23;99294.69;;;28.43;47.15
18527;BME280;9393;42.158;24.748;2022-07-25T02:08:29;99287.03;;;28.72;46.89
18527;BME280;9393;42.158;24.748;2022-07-25T02:11:33;99280.59;;;28.78;47.05
18527;BME280;9393;42.158;24.748;2022-07-25T02:14:36;99280.88;;;29.01;46.82
18527;BME280;9393;42.158;24.748;2022-07-25T02:17:40;99281.69;;;29.32;45.86
18527;BME280;9393;42.158;24.748;2022-07-25T02:20:44;99272.00;;;29.21;46.55
18527;BME280;9393;42.158;24.748;2022-07-25T02:23:49;99274.44;;;29.02;46.96
18527;BME280;9393;42.158;24.748;2022-07-25T02:26:52;99273.63;;;29.27;46.82
18527;BME280;9393;42.158;24.748;2022-07-25T02:29:56;99258.06;;;29.34;46.85
18527;BME280;9393;42.158;24.748;2022-07-25T02:32:59;99254.81;;;29.52;46.08
18527;BME280;9393;42.158;24.748;2022-07-25T02:36:03;99252.94;;;29.43;46.55
18527;BME280;9393;42.158;24.748;2022-07-25T02:39:08;99258.00;;;29.59;46.06
18527;BME280;9393;42.158;24.748;2022-07-25T02:42:11;99256.66;;;29.67;46.15
18527;BME280;9393;42.158;24.748;2022-07-25T02:45:15;99258.03;;;29.49;46.67
18527;BME280;9393;42.158;24.748;2022-07-25T02:48:18;99270.63;;;29.59;46.16
18527;BME280;9393;42.158;24.748;2022-07-25T02:51:22;99262.88;;;29.27;46.91
18527;BME280;9393;42.158;24.748;2022-07-25T02:54:27;99251.31;;;28.96;47.56
18527;BME280;9393;42.158;24.748;2022-07-25T02:57:30;99259.41;;;29.01;47.06
18527;BME280;9393;42.158;24.748;2022-07-25T03:00:34;99263.69;;;29.13;46.76
18527;BME280;9393;42.158;24.748;2022-07-25T03:03:38;99275.53;;;29.32;45.99
18527;BME280;9393;42.158;24.748;2022-07-25T03:06:41;99281.41;;;29.54;45.69
18527;BME280;9393;42.158;24.748;2022-07-25T03:09:46;99285.72;;;29.40;46.24
18527;BME280;9393;42.158;24.748;2022-07-25T03:12:49;99283.03;;;29.20;46.42
18527;BME280;9393;42.158;24.748;2022-07-25T03:15:52;99291.59;;;28.86;46.96
18527;BME280;9393;42.158;24.748;2022-07-25T03:18:56;99293.50;;;28.96;46.79
18527;BME280;9393;42.158;24.748;2022-07-25T03:21:59;99297.50;;;28.93;46.74
18527;BME280;9393;42.158;24.748;2022-07-25T03:25:05;99293.50;;;29.11;46.16
18527;BME280;9393;42.158;24.748;2022-07-25T03:28:22;99297.00;;;29.32;45.26
18527;BME280;9393;42.158;24.748;2022-07-25T03:31:26;99304.22;;;29.01;45.84
18527;BME280;9393;42.158;24.748;2022-07-25T03:34:29;99307.72;;;29.22;45.85
18527;BME280;9393;42.158;24.748;2022-07-25T03:37:33;99306.09;;;29.10;46.45
18527;BME280;9393;42.158;24.748;2022-07-25T03:40:37;99308.69;;;28.65;47.18
18527;BME280;9393;42.158;24.748;2022-07-25T03:43:41;99319.41;;;28.60;47.60
18527;BME280;9393;42.158;24.748;2022-07-25T03:46:45;99309.28;;;28.10;49.34
18527;BME280;9393;42.158;24.748;2022-07-25T03:49:48;99318.66;;;28.07;49.49
18527;BME280;9393;42.158;24.748;2022-07-25T03:52:51;99320.88;;;28.21;49.21
18527;BME280;9393;42.158;24.748;2022-07-25T03:55:56;99324.41;;;28.31;49.23
18527;BME280;9393;42.158;24.748;2022-07-25T03:58:59;99315.25;;;28.22;49.39
18527;BME280;9393;42.158;24.748;2022-07-25T04:02:03;99315.50;;;28.16;49.26
18527;BME280;9393;42.158;24.748;2022-07-25T04:05:08;99319.53;;;28.13;48.81
18527;BME280;9393;42.158;24.748;2022-07-25T04:08:11;99319.06;;;28.36;48.02
18527;BME280;9393;42.158;24.748;2022-07-25T04:11:16;99314.28;;;28.48;47.64
18527;BME280;9393;42.158;24.748;2022-07-25T04:14:20;99316.69;;;28.45;47.31
18527;BME280;9393;42.158;24.748;2022-07-25T04:17:23;99318.06;;;28.52;46.88
18527;BME280;9393;42.158;24.748;2022-07-25T04:20:27;99316.75;;;28.60;46.64
18527;BME280;9393;42.158;24.748;2022-07-25T04:23:30;99320.50;;;28.64;47.01
18527;BME280;9393;42.158;24.748;2022-07-25T04:26:35;99326.13;;;28.63;47.29
18527;BME280;9393;42.158;24.748;2022-07-25T04:29:38;99323.81;;;29.06;46.00
18527;BME280;9393;42.158;24.748;2022-07-25T04:32:42;99321.41;;;29.25;45.66
18527;BME280;9393;42.158;24.748;2022-07-25T04:35:45;99321.69;;;28.98;46.47
18527;BME280;9393;42.158;24.748;2022-07-25T04:38:49;99323.84;;;29.12;46.28
18527;BME280;9393;42.158;24.748;2022-07-25T04:41:53;99328.94;;;29.03;46.51
18527;BME280;9393;42.158;24.748;2022-07-25T04:44:57;99329.19;;;29.06;46.80
18527;BME280;9393;42.158;24.748;2022-07-25T04:48:00;99324.38;;;29.19;46.67
18527;BME280;9393;42.158;24.748;2022-07-25T04:51:04;99330.28;;;29.05;47.35
18527;BME280;9393;42.158;24.748;2022-07-25T04:54:08;99334.56;;;29.01;47.66
18527;BME280;9393;42.158;24.748;2022-07-25T04:57:13;99334.06;;;29.20;47.26
18527;BME280;9393;42.158;24.748;2022-07-25T05:00:16;99336.19;;;28.92;47.74
18527;BME280;9393;42.158;24.748;2022-07-25T05:03:20;99335.38;;;29.17;47.65
18527;BME280;9393;42.158;24.748;2022-07-25T05:06:23;99331.38;;;29.35;46.88
18527;BME280;9393;42.158;24.748;2022-07-25T05:09:27;99325.97;;;29.25;47.39
18527;BME280;9393;42.158;24.748;2022-07-25T05:12:32;99336.75;;;29.20;47.38
18527;BME280;9393;42.158;24.748;2022-07-25T05:15:35;99334.06;;;29.20;47.27
18527;BME280;9393;42.158;24.748;2022-07-25T05:18:38;99332.47;;;29.54;46.76
18527;BME280;9393;42.158;24.748;2022-07-25T05:21:42;99341.56;;;29.18;48.09
18527;BME280;9393;42.158;24.748;2022-07-25T05:24:46;99339.94;;;29.22;47.90
18527;BME280;9393;42.158;24.748;2022-07-25T05:27:50;99340.25;;;29.61;46.75
18527;BME280;9393;42.158;24.748;2022-07-25T05:30:55;99346.72;;;29.39;47.72
18527;BME280;9393;42.158;24.748;2022-07-25T05:33:58;99346.41;;;29.86;46.99
18527;BME280;9393;42.158;24.748;2022-07-25T05:37:02;99348.84;;;29.57;47.73
18527;BME280;9393;42.158;24.748;2022-07-25T05:40:07;99348.84;;;29.88;46.93
18527;BME280;9393;42.158;24.748;2022-07-25T05:43:11;99350.94;;;30.01;46.72
18527;BME280;9393;42.158;24.748;2022-07-25T05:46:15;99349.00;;;30.22;47.05
18527;BME280;9393;42.158;24.748;2022-07-25T05:49:18;99353.41;;;29.87;47.27
18527;BME280;9393;42.158;24.748;2022-07-25T05:52:22;99342.66;;;29.82;47.51
18527;BME280;9393;42.158;24.748;2022-07-25T05:55:25;99337.25;;;29.97;47.24
18527;BME280;9393;42.158;24.748;2022-07-25T05:58:30;99338.66;;;29.54;48.30
18527;BME280;9393;42.158;24.748;2022-07-25T06:01:34;99344.28;;;29.68;48.19
18527;BME280;9393;42.158;24.748;2022-07-25T06:04:37;99342.63;;;29.72;48.71
18527;BME280;9393;42.158;24.748;2022-07-25T06:07:40;99339.94;;;30.02;48.02
18527;BME280;9393;42.158;24.748;2022-07-25T06:10:44;99342.00;;;30.26;47.56
18527;BME280;9393;42.158;24.748;2022-07-25T06:13:49;99336.44;;;29.97;48.04
18527;BME280;9393;42.158;24.748;2022-07-25T06:16:52;99340.88;;;30.42;46.90
18527;BME280;9393;42.158;24.748;2022-07-25T06:19:56;99334.44;;;30.33;46.90
18527;BME280;9393;42.158;24.748;2022-07-25T06:22:59;99334.28;;;30.73;45.87
18527;BME280;9393;42.158;24.748;2022-07-25T06:26:07;99337.84;;;31.08;45.85
18527;BME280;9393;42.158;24.748;2022-07-25T06:29:12;99336.72;;;30.70;46.33
18527;BME280;9393;42.158;24.748;2022-07-25T06:32:15;99338.19;;;30.91;45.67
18527;BME280;9393;42.158;24.748;2022-07-25T06:35:19;99335.13;;;31.13;45.64
18527;BME280;9393;42.158;24.748;2022-07-25T06:38:22;99337.38;;;30.95;45.67
18527;BME280;9393;42.158;24.748;2022-07-25T06:41:25;99334.06;;;31.09;45.60
18527;BME280;9393;42.158;24.748;2022-07-25T06:44:32;99326.91;;;31.28;45.42
18527;BME280;9393;42.158;24.748;2022-07-25T06:47:35;99331.25;;;31.24;44.75
18527;BME280;9393;42.158;24.748;2022-07-25T06:50:39;99338.09;;;31.79;43.93
18527;BME280;9393;42.158;24.748;2022-07-25T06:53:42;99327.84;;;31.76;43.53
18527;BME280;9393;42.158;24.748;2022-07-25T06:56:46;99337.72;;;32.14;42.65
18527;BME280;9393;42.158;24.748;2022-07-25T06:59:51;99333.38;;;32.61;42.12
18527;BME280;9393;42.158;24.748;2022-07-25T07:02:56;99333.88;;;32.63;41.40
18527;BME280;9393;42.158;24.748;2022-07-25T07:06:02;99333.13;;;32.57;41.57
18527;BME280;9393;42.158;24.748;2022-07-25T07:09:05;99337.31;;;32.44;41.94
18527;BME280;9393;42.158;24.748;2022-07-25T07:12:09;99331.75;;;32.41;41.61
18527;BME280;9393;42.158;24.748;2022-07-25T07:15:15;99335.44;;;32.45;41.76
18527;BME280;9393;42.158;24.748;2022-07-25T07:18:20;99334.78;;;32.77;41.15
18527;BME280;9393;42.158;24.748;2022-07-25T07:21:23;99331.75;;;33.34;40.55
18527;BME280;9393;42.158;24.748;2022-07-25T07:24:27;99328.03;;;33.63;38.89
18527;BME280;9393;42.158;24.748;2022-07-25T07:27:44;99334.34;;;33.58;39.14
18527;BME280;9393;42.158;24.748;2022-07-25T07:30:49;99329.63;;;33.31;39.63
18527;BME280;9393;42.158;24.748;2022-07-25T07:34:12;99331.78;;;33.16;40.13
18527;BME280;9393;42.158;24.748;2022-07-25T07:37:17;99326.63;;;33.65;39.37
18527;BME280;9393;42.158;24.748;2022-07-25T07:40:21;99332.50;;;33.02;39.85
18527;BME280;9393;42.158;24.748;2022-07-25T07:43:24;99326.38;;;33.48;39.35
18527;BME280;9393;42.158;24.748;2022-07-25T07:46:32;99327.25;;;33.30;39.12
18527;BME280;9393;42.158;24.748;2022-07-25T07:49:35;99326.09;;;32.80;40.00
18527;BME280;9393;42.158;24.748;2022-07-25T07:52:39;99318.81;;;32.57;40.13
18527;BME280;9393;42.158;24.748;2022-07-25T07:55:42;99322.88;;;33.15;39.34
18527;BME280;9393;42.158;24.748;2022-07-25T07:58:45;99320.25;;;33.75;38.34
18527;BME280;9393;42.158;24.748;2022-07-25T08:01:49;99318.72;;;33.69;37.78
18527;BME280;9393;42.158;24.748;2022-07-25T08:04:53;99321.53;;;34.59;36.97
18527;BME280;9393;42.158;24.748;2022-07-25T08:07:56;99324.09;;;35.14;35.96
18527;BME280;9393;42.158;24.748;2022-07-25T08:11:00;99319.22;;;35.46;35.51
18527;BME280;9393;42.158;24.748;2022-07-25T08:14:03;99322.16;;;35.59;35.06
18527;BME280;9393;42.158;24.748;2022-07-25T08:17:09;99318.69;;;35.14;34.73
18527;BME280;9393;42.158;24.748;2022-07-25T08:20:13;99316.19;;;35.70;33.92
18527;BME280;9393;42.158;24.748;2022-07-25T08:23:37;99322.03;;;35.94;33.99
18527;BME280;9393;42.158;24.748;2022-07-25T08:26:40;99317.00;;;35.71;33.67
18527;BME280;9393;42.158;24.748;2022-07-25T08:29:49;99321.53;;;36.32;33.21
18527;BME280;9393;42.158;24.748;2022-07-25T08:32:57;99320.91;;;36.35;32.60
18527;BME280;9393;42.158;24.748;2022-07-25T08:36:00;99319.31;;;36.42;32.10
18527;BME280;9393;42.158;24.748;2022-07-25T08:39:03;99323.66;;;36.52;32.11
18527;BME280;9393;42.158;24.748;2022-07-25T08:42:07;99326.91;;;36.71;31.73
18527;BME280;9393;42.158;24.748;2022-07-25T08:45:17;99324.59;;;36.39;32.43
18527;BME280;9393;42.158;24.748;2022-07-25T08:48:24;99322.44;;;36.92;31.83
18527;BME280;9393;42.158;24.748;2022-07-25T08:51:28;99317.09;;;36.53;32.37
18527;BME280;9393;42.158;24.748;2022-07-25T08:54:31;99323.03;;;36.55;32.49
18527;BME280;9393;42.158;24.748;2022-07-25T08:57:35;99327.09;;;37.09;31.41
18527;BME280;9393;42.158;24.748;2022-07-25T09:00:39;99321.63;;;37.01;31.07
18527;BME280;9393;42.158;24.748;2022-07-25T09:03:44;99317.31;;;37.00;30.78
18527;BME280;9393;42.158;24.748;2022-07-25T09:06:48;99320.81;;;37.17;30.53
18527;BME280;9393;42.158;24.748;2022-07-25T09:09:52;99314.44;;;36.70;30.75
18527;BME280;9393;42.158;24.748;2022-07-25T09:12:57;99302.56;;;36.49;30.52
18527;BME280;9393;42.158;24.748;2022-07-25T09:16:00;99313.00;;;36.99;29.93
18527;BME280;9393;42.158;24.748;2022-07-25T09:19:10;99303.88;;;36.94;29.63
18527;BME280;9393;42.158;24.748;2022-07-25T09:22:13;99303.88;;;36.94;29.86
18527;BME280;9393;42.158;24.748;2022-07-25T09:25:21;99301.44;;;37.27;29.54
18527;BME280;9393;42.158;24.748;2022-07-25T09:28:25;99298.13;;;37.22;29.16
18527;BME280;9393;42.158;24.748;2022-07-25T09:31:31;99298.44;;;37.12;29.56
18527;BME280;9393;42.158;24.748;2022-07-25T09:34:38;99296.03;;;37.10;29.15
18527;BME280;9393;42.158;24.748;2022-07-25T09:37:47;99290.94;;;37.72;28.28
18527;BME280;9393;42.158;24.748;2022-07-25T09:40:55;99295.09;;;37.78;29.22
18527;BME280;9393;42.158;24.748;2022-07-25T09:43:59;99297.63;;;37.28;27.84
18527;BME280;9393;42.158;24.748;2022-07-25T09:47:09;99295.50;;;37.42;28.39
18527;BME280;9393;42.158;24.748;2022-07-25T09:50:15;99303.56;;;37.22;28.53
18527;BME280;9393;42.158;24.748;2022-07-25T09:53:19;99287.72;;;37.07;28.87
18527;BME280;9393;42.158;24.748;2022-07-25T09:56:22;99286.78;;;36.94;29.19
18527;BME280;9393;42.158;24.748;2022-07-25T09:59:26;99286.88;;;37.49;28.21
18527;BME280;9393;42.158;24.748;2022-07-25T10:02:39;99275.25;;;38.07;28.16
18527;BME280;9393;42.158;24.748;2022-07-25T10:05:51;99280.63;;;37.86;28.17
18527;BME280;9393;42.158;24.748;2022-07-25T10:08:59;99276.22;;;38.11;28.65
18527;BME280;9393;42.158;24.748;2022-07-25T10:12:04;99271.56;;;37.74;28.11
18527;BME280;9393;42.158;24.748;2022-07-25T10:15:09;99277.84;;;37.02;28.83
18527;BME280;9393;42.158;24.748;2022-07-25T10:18:13;99269.47;;;37.24;29.27
18527;BME280;9393;42.158;24.748;2022-07-25T10:21:19;99263.03;;;37.55;28.81
18527;BME280;9393;42.158;24.748;2022-07-25T10:24:32;99250.03;;;37.60;28.24
18527;BME280;9393;42.158;24.748;2022-07-25T10:27:41;99250.84;;;37.52;28.50
18527;BME280;9393;42.158;24.748;2022-07-25T10:30:45;99250.25;;;37.76;28.41
18527;BME280;9393;42.158;24.748;2022-07-25T10:33:54;99243.47;;;37.90;28.15
18527;BME280;9393;42.158;24.748;2022-07-25T10:37:10;99242.47;;;38.24;28.07
18527;BME280;9393;42.158;24.748;2022-07-25T10:40:24;99237.81;;;38.25;28.58
18527;BME280;9393;42.158;24.748;2022-07-25T10:43:28;99238.03;;;37.99;28.10
18527;BME280;9393;42.158;24.748;2022-07-25T10:46:33;99235.97;;;37.96;28.00
18527;BME280;9393;42.158;24.748;2022-07-25T10:49:39;99229.31;;;38.06;27.90
18527;BME280;9393;42.158;24.748;2022-07-25T10:53:04;99228.75;;;37.91;28.08
18527;BME280;9393;42.158;24.748;2022-07-25T10:56:13;99221.75;;;37.82;28.38
18527;BME280;9393;42.158;24.748;2022-07-25T10:59:25;99227.81;;;37.58;29.36
18527;BME280;9393;42.158;24.748;2022-07-25T11:02:29;99221.41;;;37.83;29.46
18527;BME280;9393;42.158;24.748;2022-07-25T11:05:43;99218.84;;;37.49;29.64
18527;BME280;9393;42.158;24.748;2022-07-25T11:08:48;99212.44;;;37.83;29.91
18527;BME280;9393;42.158;24.748;2022-07-25T11:11:53;99214.03;;;37.84;28.42
18527;BME280;9393;42.158;24.748;2022-07-25T11:15:00;99219.03;;;37.82;28.82
18527;BME280;9393;42.158;24.748;2022-07-25T11:18:04;99206.09;;;37.79;28.53
18527;BME280;9393;42.158;24.748;2022-07-25T11:21:08;99197.25;;;37.82;28.84
18527;BME280;9393;42.158;24.748;2022-07-25T11:24:12;99189.50;;;37.63;28.04
18527;BME280;9393;42.158;24.748;2022-07-25T11:27:21;99181.31;;;38.01;28.23
18527;BME280;9393;42.158;24.748;2022-07-25T11:30:26;99181.88;;;38.07;28.75
18527;BME280;9393;42.158;24.748;2022-07-25T11:33:30;99171.00;;;38.07;27.99
18527;BME280;9393;42.158;24.748;2022-07-25T11:36:39;99174.41;;;37.74;28.13
18527;BME280;9393;42.158;24.748;2022-07-25T11:39:45;99165.03;;;38.13;27.67
18527;BME280;9393;42.158;24.748;2022-07-25T11:42:50;99167.22;;;37.70;28.96
18527;BME280;9393;42.158;24.748;2022-07-25T11:45:56;99170.91;;;36.72;30.84
18527;BME280;9393;42.158;24.748;2022-07-25T11:49:03;99169.25;;;37.06;29.36
18527;BME280;9393;42.158;24.748;2022-07-25T11:52:18;99170.03;;;36.97;30.26
18527;BME280;9393;42.158;24.748;2022-07-25T11:55:27;99173.41;;;37.03;29.79
18527;BME280;9393;42.158;24.748;2022-07-25T11:58:31;99164.78;;;37.10;29.96
18527;BME280;9393;42.158;24.748;2022-07-25T12:01:35;99157.38;;;37.19;29.41
18527;BME280;9393;42.158;24.748;2022-07-25T12:04:39;99166.66;;;37.56;29.13
18527;BME280;9393;42.158;24.748;2022-07-25T12:07:44;99161.22;;;37.56;28.98
18527;BME280;9393;42.158;24.748;2022-07-25T12:10:49;99152.91;;;37.81;28.19
18527;BME280;9393;42.158;24.748;2022-07-25T12:14:01;99154.38;;;37.50;28.82
18527;BME280;9393;42.158;24.748;2022-07-25T12:17:06;99153.69;;;37.61;28.44
18527;BME280;9393;42.158;24.748;2022-07-25T12:20:12;99149.44;;;38.02;28.06
18527;BME280;9393;42.158;24.748;2022-07-25T12:23:16;99143.03;;;37.98;27.90
18527;BME280;9393;42.158;24.748;2022-07-25T12:26:24;99142.53;;;37.54;28.54
18527;BME280;9393;42.158;24.748;2022-07-25T12:29:27;99137.66;;;37.60;28.29
18527;BME280;9393;42.158;24.748;2022-07-25T12:32:30;99130.03;;;37.53;28.56
18527;BME280;9393;42.158;24.748;2022-07-25T12:35:34;99126.75;;;37.89;28.24
18527;BME280;9393;42.158;24.748;2022-07-25T12:38:38;99129.84;;;37.58;28.88
18527;BME280;9393;42.158;24.748;2022-07-25T12:41:43;99125.31;;;37.33;28.70
18527;BME280;9393;42.158;24.748;2022-07-25T12:44:46;99119.03;;;37.70;28.30
18527;BME280;9393;42.158;24.748;2022-07-25T12:47:50;99117.84;;;37.80;28.49
18527;BME280;9393;42.158;24.748;2022-07-25T12:50:53;99126.09;;;36.95;29.46
18527;BME280;9393;42.158;24.748;2022-07-25T12:53:57;99110.81;;;36.65;30.04
18527;BME280;9393;42.158;24.748;2022-07-25T12:57:01;99116.75;;;36.41;31.13
18527;BME280;9393;42.158;24.748;2022-07-25T13:00:08;99115.94;;;36.07;31.31
18527;BME280;9393;42.158;24.748;2022-07-25T13:03:13;99115.00;;;35.85;32.55
18527;BME280;9393;42.158;24.748;2022-07-25T13:06:16;99114.53;;;36.26;31.81
18527;BME280;9393;42.158;24.748;2022-07-25T13:09:22;99116.47;;;36.09;32.58
18527;BME280;9393;42.158;24.748;2022-07-25T13:12:26;99106.56;;;36.30;32.68
18527;BME280;9393;42.158;24.748;2022-07-25T13:15:30;99109.53;;;36.71;32.39
18527;BME280;9393;42.158;24.748;2022-07-25T13:18:33;99115.00;;;36.28;33.14
18527;BME280;9393;42.158;24.748;2022-07-25T13:21:37;99106.13;;;35.54;33.53
18527;BME280;9393;42.158;24.748;2022-07-25T13:24:40;99100.28;;;35.69;33.56
18527;BME280;9393;42.158;24.748;2022-07-25T13:27:46;99117.25;;;35.05;34.80
18527;BME280;9393;42.158;24.748;2022-07-25T13:30:50;99113.31;;;35.50;34.52
18527;BME280;9393;42.158;24.748;2022-07-25T13:33:54;99107.00;;;35.80;33.20
18527;BME280;9393;42.158;24.748;2022-07-25T13:36:57;99100.31;;;35.95;33.02
18527;BME280;9393;42.158;24.748;2022-07-25T13:40:00;99104.81;;;36.08;32.95
18527;BME280;9393;42.158;24.748;2022-07-25T13:43:05;99098.75;;;36.20;32.23
18527;BME280;9393;42.158;24.748;2022-07-25T13:46:09;99096.97;;;36.15;32.60
18527;BME280;9393;42.158;24.748;2022-07-25T13:49:13;99105.09;;;36.07;32.96
18527;BME280;9393;42.158;24.748;2022-07-25T13:52:16;99095.66;;;36.38;32.03
18527;BME280;9393;42.158;24.748;2022-07-25T13:55:19;99090.09;;;36.35;31.78
18527;BME280;9393;42.158;24.748;2022-07-25T13:58:24;99090.88;;;36.44;32.22
18527;BME280;9393;42.158;24.748;2022-07-25T14:01:28;99094.88;;;36.04;32.30
18527;BME280;9393;42.158;24.748;2022-07-25T14:04:31;99089.63;;;36.33;31.66
18527;BME280;9393;42.158;24.748;2022-07-25T14:07:35;99089.31;;;36.09;32.17
18527;BME280;9393;42.158;24.748;2022-07-25T14:10:39;99077.16;;;36.06;31.69
18527;BME280;9393;42.158;24.748;2022-07-25T14:13:44;99082.91;;;36.22;31.93
18527;BME280;9393;42.158;24.748;2022-07-25T14:16:47;99079.88;;;36.15;32.35
18527;BME280;9393;42.158;24.748;2022-07-25T14:19:51;99080.09;;;35.36;32.71
18527;BME280;9393;42.158;24.748;2022-07-25T14:22:54;99085.66;;;35.00;33.29
18527;BME280;9393;42.158;24.748;2022-07-25T14:25:57;99077.38;;;34.96;33.53
18527;BME280;9393;42.158;24.748;2022-07-25T14:29:03;99081.41;;;35.08;33.37
18527;BME280;9393;42.158;24.748;2022-07-25T14:32:07;99077.81;;;35.21;32.96
18527;BME280;9393;42.158;24.748;2022-07-25T14:35:11;99080.66;;;35.16;32.03
18527;BME280;9393;42.158;24.748;2022-07-25T14:38:14;99079.50;;;35.47;32.24
18527;BME280;9393;42.158;24.748;2022-07-25T14:41:18;99076.69;;;35.78;31.92
18527;BME280;9393;42.158;24.748;2022-07-25T14:44:23;99077.63;;;35.91;31.50
18527;BME280;9393;42.158;24.748;2022-07-25T14:47:27;99067.91;;;36.16;31.30
18527;BME280;9393;42.158;24.748;2022-07-25T14:50:30;99074.75;;;36.05;31.14
18527;BME280;9393;42.158;24.748;2022-07-25T14:53:34;99073.16;;;35.69;32.24
18527;BME280;9393;42.158;24.748;2022-07-25T14:56:38;99066.13;;;35.94;31.72
18527;BME280;9393;42.158;24.748;2022-07-25T14:59:43;99066.47;;;36.01;31.83
18527;BME280;9393;42.158;24.748;2022-07-25T15:02:46;99073.66;;;36.06;31.04
18527;BME280;9393;42.158;24.748;2022-07-25T15:05:49;99062.09;;;35.40;31.48
18527;BME280;9393;42.158;24.748;2022-07-25T15:08:53;99054.91;;;35.44;32.06
18527;BME280;9393;42.158;24.748;2022-07-25T15:11:56;99053.13;;;35.39;33.05
18527;BME280;9393;42.158;24.748;2022-07-25T15:15:01;99045.66;;;35.36;32.26
18527;BME280;9393;42.158;24.748;2022-07-25T15:18:04;99051.69;;;35.42;32.30
18527;BME280;9393;42.158;24.748;2022-07-25T15:21:14;99044.13;;;35.78;31.72
18527;BME280;9393;42.158;24.748;2022-07-25T15:24:18;99045.22;;;35.94;31.32
18527;BME280;9393;42.158;24.748;2022-07-25T15:27:27;99054.34;;;35.64;32.42
18527;BME280;9393;42.158;24.748;2022-07-25T15:30:32;99050.59;;;35.52;32.83
18527;BME280;9393;42.158;24.748;2022-07-25T15:33:36;99045.22;;;35.69;32.33
18527;BME280;9393;42.158;24.748;2022-07-25T15:36:39;99046.63;;;35.58;32.01
18527;BME280;9393;42.158;24.748;2022-07-25T15:39:42;99049.94;;;35.29;32.04
18527;BME280;9393;42.158;24.748;2022-07-25T15:42:46;99054.66;;;35.71;32.32
18527;BME280;9393;42.158;24.748;2022-07-25T15:45:51;99047.47;;;35.84;31.66
18527;BME280;9393;42.158;24.748;2022-07-25T15:48:54;99053.22;;;35.91;31.66
18527;BME280;9393;42.158;24.748;2022-07-25T15:51:59;99049.53;;;35.61;31.12
18527;BME280;9393;42.158;24.748;2022-07-25T15:55:03;99050.41;;;35.31;31.57
18527;BME280;9393;42.158;24.748;2022-07-25T15:58:06;99054.59;;;35.54;31.30
18527;BME280;9393;42.158;24.748;2022-07-25T16:01:11;99056.31;;;35.41;31.33
18527;BME280;9393;42.158;24.748;2022-07-25T16:04:15;99051.41;;;35.52;31.03
18527;BME280;9393;42.158;24.748;2022-07-25T16:07:18;99049.31;;;35.40;31.81
18527;BME280;9393;42.158;24.748;2022-07-25T16:10:22;99056.69;;;35.57;31.54
18527;BME280;9393;42.158;24.748;2022-07-25T16:13:25;99045.50;;;35.50;31.92
18527;BME280;9393;42.158;24.748;2022-07-25T16:16:31;99044.34;;;35.17;32.78
18527;BME280;9393;42.158;24.748;2022-07-25T16:19:35;99047.03;;;35.17;32.78